Details for AirAsia at WBKK




Go Back


Latest METAR
Local Time

WBKK 211430Z 00000KT 9999 FEW014 SCT140 BKN270 26/24 Q1008 NOSIG

21/02/2018, 23:04:42

Description
Results
AirAsia Logo
Number of Pilots based at WBKK
0 Pilots Based here
Number of AirAsia Flights Departed from WBKK
0 Flights Departed
Number of AirAsia Flights Arrived at WBKK
0 Flights Arrived
Number of AirAsia Schedules Departing from WBKK
38 Schedules
Number of AirAsia Schedules Arriving at WBKK
38 Schedules
Number of AirAsia Schedules Departing from WBKK availible today
35 Schedules Today
Number of AirAsia Schedules Arriving at WBKK availible today
34 Schedules Today
Average Landing Rate at WBKK
0 fpm
AirAsia Average Landing Rate at WBKK
0 fpm
Total Fuel Purchased at WBKK by AirAsia
0.00 kgs / 0.00 lbs

Pilots Based at WBKK


Pilot ID
Pilot Name
Pilot Rank
No. of Flights
No. of Flying Hours
There are no pilots assigned to this hub!   Will you be the first?
Content